Peoria Heights, Illinois
Current Conditions -  °F | °C
As of 7:54 AM on Sunday 25 Jan 2015 (Local Time) from KPIA Reporting Station
Light Rain Light Rain  
Wind Chill: -2°   Ceiling: 600
Heat Index:   Visibility: 4mi
Dew Point:   Wind: 13mph
Humidity: 89%   Direction: 60°ENE
Pressure: 29.63"   Gusts: NA
Location:  40.7452°N, 89.5738°W
Report Text: KPIA 251354Z 06011KT 4SM -RA BR BKN006 OVC036 02/01 A2963 RMK AO2 SLP039 P0002 T00220006
Loading
Personal Weather Stations






























Interactive Weather Map New forecast layout! Learn more

10-Day Weather Forecast

Advertisements
Track Severe Weather on mobile